createdAt,value
2023-02-22T00:00:54.623Z,1007.78
2023-02-22T00:01:54.644Z,1007.78
2023-02-22T00:02:54.618Z,1007.78
2023-02-22T00:03:54.600Z,1007.74
2023-02-22T00:04:54.593Z,1007.73
2023-02-22T00:05:54.584Z,1007.69
2023-02-22T00:06:54.576Z,1007.73
2023-02-22T00:07:54.566Z,1007.70
2023-02-22T00:08:54.560Z,1007.69
2023-02-22T00:09:54.549Z,1007.72
2023-02-22T00:10:54.546Z,1007.72
2023-02-22T00:11:54.533Z,1007.72
2023-02-22T00:12:54.524Z,1007.67
2023-02-22T00:13:54.524Z,1007.66
2023-02-22T00:14:54.507Z,1007.62
2023-02-22T00:15:54.499Z,1007.61
2023-02-22T00:16:54.490Z,1007.62
2023-02-22T00:17:54.484Z,1007.62
2023-02-22T00:18:54.490Z,1007.59
2023-02-22T00:19:54.459Z,1007.58
2023-02-22T00:20:54.457Z,1007.59
2023-02-22T00:21:54.443Z,1007.53
2023-02-22T00:22:54.439Z,1007.49
2023-02-22T00:23:54.439Z,1007.53
2023-02-22T00:24:54.420Z,1007.48
2023-02-22T00:25:54.420Z,1007.47
2023-02-22T00:26:54.413Z,1007.46
2023-02-22T00:27:54.400Z,1007.49
2023-02-22T00:28:54.391Z,1007.43
2023-02-22T00:29:54.383Z,1007.45
2023-02-22T00:30:54.380Z,1007.44
2023-02-22T00:31:54.556Z,1007.43
2023-02-22T00:32:54.355Z,1007.43
2023-02-22T00:33:54.352Z,1007.44
2023-02-22T00:34:54.339Z,1007.42
2023-02-22T00:35:54.332Z,1007.43
2023-02-22T00:36:54.325Z,1007.45
2023-02-22T00:37:54.325Z,1007.42
2023-02-22T00:38:54.306Z,1007.41
2023-02-22T00:39:54.300Z,1007.39
2023-02-22T00:40:54.294Z,1007.42
2023-02-22T00:41:54.322Z,1007.35
2023-02-22T00:42:54.289Z,1007.39
2023-02-22T00:43:54.264Z,1007.38
2023-02-22T00:44:54.252Z,1007.37
2023-02-22T00:45:54.291Z,1007.37
2023-02-22T00:46:54.246Z,1007.33
2023-02-22T00:47:54.234Z,1007.32
2023-02-22T00:48:54.230Z,1007.33
2023-02-22T00:49:54.224Z,1007.31
2023-02-22T00:50:54.211Z,1007.29
2023-02-22T00:51:54.205Z,1007.27
2023-02-22T00:52:54.204Z,1007.28
2023-02-22T00:53:54.193Z,1007.27
2023-02-22T00:54:54.178Z,1007.27
2023-02-22T00:55:54.171Z,1007.26
2023-02-22T00:56:54.185Z,1007.30
2023-02-22T00:57:54.149Z,1007.27
2023-02-22T00:58:54.134Z,1007.26
2023-02-22T00:59:54.138Z,1007.20
2023-02-22T01:00:54.165Z,1007.20
2023-02-22T01:01:54.137Z,1007.20
2023-02-22T01:02:54.110Z,1007.18
2023-02-22T01:03:54.102Z,1007.16
2023-02-22T01:04:54.096Z,1007.19
2023-02-22T01:05:54.086Z,1007.18
2023-02-22T01:06:54.072Z,1007.18
2023-02-22T01:07:54.071Z,1007.13
2023-02-22T01:08:54.066Z,1007.10
2023-02-22T01:09:54.072Z,1007.13
2023-02-22T01:10:54.046Z,1007.13
2023-02-22T01:11:54.044Z,1007.12
2023-02-22T01:12:54.026Z,1007.10
2023-02-22T01:13:54.052Z,1007.08
2023-02-22T01:14:54.005Z,1007.07
2023-02-22T01:15:54.024Z,1007.08
2023-02-22T01:16:54.032Z,1007.00
2023-02-22T01:17:53.991Z,1007.05
2023-02-22T01:18:53.985Z,1007.01
2023-02-22T01:19:54.099Z,1007.04
2023-02-22T01:20:53.957Z,1007.03
2023-02-22T01:21:53.954Z,1006.99
2023-02-22T01:22:53.942Z,1007.01
2023-02-22T01:23:53.931Z,1006.99
2023-02-22T01:24:53.936Z,1007.01
2023-02-22T01:25:53.919Z,1007.01
2023-02-22T01:26:53.931Z,1006.93
2023-02-22T01:27:53.902Z,1006.92
2023-02-22T01:28:53.896Z,1006.94
2023-02-22T01:29:53.875Z,1006.92
2023-02-22T01:30:54.100Z,1006.93
2023-02-22T01:31:53.916Z,1006.90
2023-02-22T01:32:53.857Z,1006.91
2023-02-22T01:33:53.853Z,1006.89
2023-02-22T01:34:53.862Z,1006.92
2023-02-22T01:35:53.838Z,1006.86
2023-02-22T01:36:53.826Z,1006.88
2023-02-22T01:37:53.820Z,1006.93
2023-02-22T01:38:53.818Z,1006.88
2023-02-22T01:39:53.794Z,1006.88
2023-02-22T01:40:53.799Z,1006.84
2023-02-22T01:41:53.779Z,1006.88
2023-02-22T01:42:53.770Z,1006.83
2023-02-22T01:43:53.762Z,1006.84
2023-02-22T01:44:53.758Z,1006.82
2023-02-22T01:45:53.802Z,1006.84
2023-02-22T01:46:53.740Z,1006.77
2023-02-22T01:47:53.723Z,1006.80
2023-02-22T01:48:53.728Z,1006.77
2023-02-22T01:49:53.713Z,1006.79
2023-02-22T01:50:53.703Z,1006.80
2023-02-22T01:51:53.693Z,1006.78
2023-02-22T01:52:53.683Z,1006.76
2023-02-22T01:53:53.676Z,1006.77
2023-02-22T01:54:53.663Z,1006.74
2023-02-22T01:55:53.652Z,1006.70
2023-02-22T01:56:53.651Z,1006.75
2023-02-22T01:57:53.637Z,1006.69
2023-02-22T01:58:53.635Z,1006.71
2023-02-22T01:59:53.633Z,1006.69
2023-02-22T02:00:53.623Z,1006.72
2023-02-22T02:01:53.613Z,1006.74
2023-02-22T02:02:53.600Z,1006.69
2023-02-22T02:03:53.621Z,1006.72
2023-02-22T02:04:53.607Z,1006.73
2023-02-22T02:05:53.601Z,1006.69
2023-02-22T02:06:53.569Z,1006.67
2023-02-22T02:07:53.561Z,1006.68
2023-02-22T02:08:53.562Z,1006.69
2023-02-22T02:09:53.543Z,1006.69
2023-02-22T02:10:53.561Z,1006.70
2023-02-22T02:11:53.525Z,1006.70
2023-02-22T02:12:53.527Z,1006.72
2023-02-22T02:13:53.509Z,1006.75
2023-02-22T02:14:53.505Z,1006.73
2023-02-22T02:15:53.493Z,1006.70
2023-02-22T02:16:53.685Z,1006.72
2023-02-22T02:17:53.480Z,1006.66
2023-02-22T02:18:53.475Z,1006.68
2023-02-22T02:19:53.458Z,1006.67
2023-02-22T02:20:53.450Z,1006.65
2023-02-22T02:21:53.449Z,1006.64
2023-02-22T02:22:53.437Z,1006.60
2023-02-22T02:23:53.451Z,1006.64
2023-02-22T02:24:53.423Z,1006.61
2023-02-22T02:25:53.408Z,1006.62
2023-02-22T02:26:53.394Z,1006.58
2023-02-22T02:27:53.389Z,1006.55
2023-02-22T02:28:53.388Z,1006.55
2023-02-22T02:29:53.379Z,1006.56
2023-02-22T02:30:53.369Z,1006.55
2023-02-22T02:31:53.449Z,1006.59
2023-02-22T02:32:53.370Z,1006.53
2023-02-22T02:33:53.337Z,1006.50
2023-02-22T02:34:53.336Z,1006.48
2023-02-22T02:35:53.332Z,1006.50
2023-02-22T02:36:53.316Z,1006.47
2023-02-22T02:37:53.304Z,1006.47
2023-02-22T02:38:53.329Z,1006.49
2023-02-22T02:39:53.342Z,1006.50
2023-02-22T02:40:53.286Z,1006.47
2023-02-22T02:41:53.282Z,1006.47
2023-02-22T02:42:53.256Z,1006.50
2023-02-22T02:43:53.257Z,1006.47
2023-02-22T02:44:53.252Z,1006.47
2023-02-22T02:45:53.239Z,1006.48
2023-02-22T02:46:53.257Z,1006.49
2023-02-22T02:47:53.226Z,1006.48
2023-02-22T02:48:53.201Z,1006.54
2023-02-22T02:49:53.202Z,1006.51
2023-02-22T02:50:53.195Z,1006.51
2023-02-22T02:51:53.188Z,1006.50
2023-02-22T02:52:53.182Z,1006.51
2023-02-22T02:53:53.171Z,1006.51
2023-02-22T02:54:53.157Z,1006.50
2023-02-22T02:55:53.148Z,1006.52
2023-02-22T02:56:53.145Z,1006.49
2023-02-22T02:57:53.132Z,1006.46
2023-02-22T02:58:53.249Z,1006.46
2023-02-22T02:59:53.127Z,1006.41
2023-02-22T03:00:53.117Z,1006.45
2023-02-22T03:01:53.111Z,1006.42
2023-02-22T03:02:53.104Z,1006.42
2023-02-22T03:03:53.075Z,1006.40
2023-02-22T03:04:53.081Z,1006.40
2023-02-22T03:05:53.076Z,1006.43
2023-02-22T03:06:53.059Z,1006.44
2023-02-22T03:07:53.046Z,1006.44
2023-02-22T03:08:53.044Z,1006.42
2023-02-22T03:09:53.053Z,1006.43
2023-02-22T03:10:53.021Z,1006.42
2023-02-22T03:11:53.013Z,1006.36
2023-02-22T03:12:53.008Z,1006.42
2023-02-22T03:13:53.002Z,1006.41
2023-02-22T03:14:53.014Z,1006.44
2023-02-22T03:15:52.980Z,1006.40
2023-02-22T03:16:52.972Z,1006.40
2023-02-22T03:17:52.957Z,1006.34
2023-02-22T03:18:52.992Z,1006.37
2023-02-22T03:19:52.942Z,1006.38
2023-02-22T03:20:52.950Z,1006.37
2023-02-22T03:21:52.929Z,1006.39
2023-02-22T03:22:52.927Z,1006.36
2023-02-22T03:23:52.908Z,1006.35
2023-02-22T03:24:52.925Z,1006.34
2023-02-22T03:25:52.890Z,1006.34
2023-02-22T03:26:52.876Z,1006.32
2023-02-22T03:27:52.869Z,1006.34
2023-02-22T03:28:52.864Z,1006.34
2023-02-22T03:29:52.850Z,1006.33
2023-02-22T03:30:52.879Z,1006.37
2023-02-22T03:31:52.847Z,1006.32
2023-02-22T03:32:52.835Z,1006.36
2023-02-22T03:33:52.820Z,1006.36
2023-02-22T03:34:52.823Z,1006.33
2023-02-22T03:35:52.801Z,1006.31
2023-02-22T03:36:52.792Z,1006.35
2023-02-22T03:37:52.780Z,1006.31
2023-02-22T03:38:52.770Z,1006.33
2023-02-22T03:39:52.762Z,1006.38
2023-02-22T03:40:52.756Z,1006.35
2023-02-22T03:41:52.749Z,1006.36
2023-02-22T03:42:52.737Z,1006.36
2023-02-22T03:43:52.719Z,1006.34
2023-02-22T03:44:52.727Z,1006.35
2023-02-22T03:45:52.702Z,1006.33
2023-02-22T03:46:52.702Z,1006.32
2023-02-22T03:47:52.692Z,1006.32
2023-02-22T03:48:52.685Z,1006.31
2023-02-22T03:49:52.670Z,1006.32
2023-02-22T03:50:52.657Z,1006.35
2023-02-22T03:51:52.638Z,1006.31
2023-02-22T03:52:52.638Z,1006.27
2023-02-22T03:53:52.625Z,1006.23
2023-02-22T03:54:52.626Z,1006.26
2023-02-22T03:55:52.608Z,1006.25
2023-02-22T03:56:52.608Z,1006.26
2023-02-22T03:57:52.591Z,1006.25
2023-02-22T03:58:52.586Z,1006.28
2023-02-22T03:59:52.574Z,1006.34
2023-02-22T04:00:52.563Z,1006.31
2023-02-22T04:01:52.558Z,1006.35
2023-02-22T04:02:52.554Z,1006.33
2023-02-22T04:03:52.540Z,1006.35
2023-02-22T04:04:52.628Z,1006.31
2023-02-22T04:05:52.512Z,1006.32
2023-02-22T04:06:52.514Z,1006.35
2023-02-22T04:07:52.499Z,1006.29
2023-02-22T04:08:52.502Z,1006.30
2023-02-22T04:09:52.482Z,1006.26
2023-02-22T04:10:52.471Z,1006.29
2023-02-22T04:11:52.470Z,1006.30
2023-02-22T04:12:52.463Z,1006.27
2023-02-22T04:13:52.447Z,1006.26
2023-02-22T04:14:52.433Z,1006.29
2023-02-22T04:15:52.442Z,1006.29
2023-02-22T04:16:52.410Z,1006.29
2023-02-22T04:17:52.405Z,1006.31
2023-02-22T04:18:52.399Z,1006.27
2023-02-22T04:19:52.392Z,1006.27
2023-02-22T04:20:52.377Z,1006.21
2023-02-22T04:21:52.377Z,1006.21
2023-02-22T04:22:52.366Z,1006.17
2023-02-22T04:23:52.354Z,1006.20
2023-02-22T04:24:52.353Z,1006.19
2023-02-22T04:25:52.333Z,1006.19
2023-02-22T04:26:52.329Z,1006.16
2023-02-22T04:27:52.319Z,1006.12
2023-02-22T04:28:52.303Z,1006.16
2023-02-22T04:29:52.306Z,1006.17
2023-02-22T04:30:52.365Z,1006.18
2023-02-22T04:31:52.311Z,1006.17
2023-02-22T04:32:52.267Z,1006.13
2023-02-22T04:33:52.261Z,1006.17
2023-02-22T04:34:52.247Z,1006.16
2023-02-22T04:35:52.266Z,1006.12
2023-02-22T04:36:52.233Z,1006.10
2023-02-22T04:37:52.222Z,1006.10
2023-02-22T04:38:52.210Z,1006.14
2023-02-22T04:39:52.238Z,1006.07
2023-02-22T04:40:52.196Z,1006.09
2023-02-22T04:41:52.183Z,1006.11
2023-02-22T04:42:52.200Z,1006.08
2023-02-22T04:43:52.177Z,1006.10
2023-02-22T04:44:52.152Z,1006.05
2023-02-22T04:45:52.154Z,1006.06
2023-02-22T04:46:52.142Z,1006.08
2023-02-22T04:47:52.129Z,1006.04
2023-02-22T04:48:52.115Z,1006.09
2023-02-22T04:49:52.109Z,1006.11
2023-02-22T04:50:52.099Z,1006.11
2023-02-22T04:51:52.094Z,1006.09
2023-02-22T04:52:52.098Z,1006.10
2023-02-22T04:53:52.087Z,1006.08
2023-02-22T04:54:52.075Z,1006.06
2023-02-22T04:55:52.078Z,1006.04
2023-02-22T04:56:52.048Z,1006.10
2023-02-22T04:57:52.038Z,1006.12
2023-02-22T04:58:52.050Z,1006.14
2023-02-22T04:59:52.022Z,1006.08
2023-02-22T05:00:52.007Z,1006.07
2023-02-22T05:01:52.012Z,1006.09
2023-02-22T05:02:52.042Z,1006.01
2023-02-22T05:03:51.991Z,1006.06
2023-02-22T05:04:52.029Z,1005.99
2023-02-22T05:05:51.966Z,1006.03
2023-02-22T05:06:54.120Z,1005.99
2023-02-22T05:07:51.944Z,1005.99
2023-02-22T05:08:51.938Z,1006.00
2023-02-22T05:09:51.932Z,1005.95
2023-02-22T05:10:51.917Z,1005.98
2023-02-22T05:11:51.907Z,1005.91
2023-02-22T05:12:51.915Z,1005.93
2023-02-22T05:13:51.882Z,1005.94
2023-02-22T05:14:51.881Z,1005.93
2023-02-22T05:15:51.877Z,1005.94
2023-02-22T05:16:51.867Z,1005.92
2023-02-22T05:17:51.858Z,1005.91
2023-02-22T05:18:51.865Z,1005.96
2023-02-22T05:19:51.851Z,1005.92
2023-02-22T05:20:51.832Z,1005.96
2023-02-22T05:21:51.813Z,1005.96
2023-02-22T05:22:51.814Z,1005.96
2023-02-22T05:23:51.798Z,1005.93
2023-02-22T05:24:51.786Z,1005.92
2023-02-22T05:25:51.775Z,1005.93
2023-02-22T05:26:51.778Z,1005.88
2023-02-22T05:27:51.766Z,1005.94
2023-02-22T05:28:51.760Z,1005.90
2023-02-22T05:29:51.750Z,1005.90
2023-02-22T05:30:51.736Z,1005.89
2023-02-22T05:31:51.800Z,1005.92
2023-02-22T05:32:51.726Z,1005.90
2023-02-22T05:33:51.705Z,1005.93
2023-02-22T05:34:51.700Z,1005.90
2023-02-22T05:35:51.688Z,1005.90
2023-02-22T05:36:51.676Z,1005.91
2023-02-22T05:37:51.670Z,1005.89
2023-02-22T05:38:51.655Z,1005.89
2023-02-22T05:39:51.662Z,1005.93
2023-02-22T05:40:51.639Z,1005.90
2023-02-22T05:41:51.638Z,1005.91
2023-02-22T05:42:51.622Z,1005.84
2023-02-22T05:43:51.654Z,1005.88
2023-02-22T05:44:51.601Z,1005.85
2023-02-22T05:45:51.596Z,1005.82
2023-02-22T05:46:51.628Z,1005.79
2023-02-22T05:47:51.600Z,1005.78
2023-02-22T05:48:51.577Z,1005.79
2023-02-22T05:49:51.559Z,1005.80
2023-02-22T05:50:51.556Z,1005.74
2023-02-22T05:51:51.542Z,1005.76
2023-02-22T05:52:51.528Z,1005.73
2023-02-22T05:53:51.532Z,1005.74
2023-02-22T05:54:51.516Z,1005.71
2023-02-22T05:55:51.505Z,1005.69
2023-02-22T05:56:51.510Z,1005.68
2023-02-22T05:57:51.504Z,1005.69
2023-02-22T05:58:51.476Z,1005.67
2023-02-22T05:59:51.473Z,1005.65
2023-02-22T06:00:51.464Z,1005.68
2023-02-22T06:01:51.479Z,1005.63
2023-02-22T06:02:51.435Z,1005.65
2023-02-22T06:03:51.431Z,1005.64
2023-02-22T06:04:51.415Z,1005.60
2023-02-22T06:05:51.475Z,1005.62
2023-02-22T06:06:51.402Z,1005.59
2023-02-22T06:07:51.392Z,1005.64
2023-02-22T06:08:51.382Z,1005.61
2023-02-22T06:09:51.369Z,1005.63
2023-02-22T06:10:51.368Z,1005.64
2023-02-22T06:11:53.036Z,1005.62
2023-02-22T06:12:51.387Z,1005.64
2023-02-22T06:13:51.356Z,1005.62
2023-02-22T06:14:51.355Z,1005.63
2023-02-22T06:15:51.373Z,1005.60
2023-02-22T06:16:51.333Z,1005.59
2023-02-22T06:17:51.325Z,1005.59
2023-02-22T06:18:51.338Z,1005.58
2023-02-22T06:19:51.270Z,1005.58
2023-02-22T06:20:51.273Z,1005.59
2023-02-22T06:21:51.281Z,1005.60
2023-02-22T06:22:51.264Z,1005.59
2023-02-22T06:23:51.236Z,1005.60
2023-02-22T06:24:52.502Z,1005.60
2023-02-22T06:25:51.240Z,1005.54
2023-02-22T06:26:51.217Z,1005.58
2023-02-22T06:27:51.206Z,1005.56
2023-02-22T06:28:51.197Z,1005.57
2023-02-22T06:29:51.194Z,1005.53
2023-02-22T06:30:51.182Z,1005.53
2023-02-22T06:31:51.273Z,1005.51
2023-02-22T06:32:51.185Z,1005.49
2023-02-22T06:33:51.147Z,1005.51
2023-02-22T06:34:51.128Z,1005.51
2023-02-22T06:35:51.137Z,1005.52
2023-02-22T06:36:51.117Z,1005.49
2023-02-22T06:37:51.116Z,1005.50
2023-02-22T06:38:51.114Z,1005.48
2023-02-22T06:39:51.091Z,1005.50
2023-02-22T06:40:51.076Z,1005.49
2023-02-22T06:41:51.118Z,1005.53
2023-02-22T06:42:51.077Z,1005.58
2023-02-22T06:43:51.069Z,1005.50
2023-02-22T06:44:51.789Z,1005.50
2023-02-22T06:45:51.133Z,1005.53
2023-02-22T06:46:51.055Z,1005.53
2023-02-22T06:47:51.054Z,1005.52
2023-02-22T06:48:51.025Z,1005.56
2023-02-22T06:49:51.001Z,1005.53
2023-02-22T06:50:51.000Z,1005.56
2023-02-22T06:51:50.994Z,1005.59
2023-02-22T06:52:50.977Z,1005.61
2023-02-22T06:53:50.973Z,1005.58
2023-02-22T06:54:50.967Z,1005.59
2023-02-22T06:55:50.958Z,1005.59
2023-02-22T06:56:50.935Z,1005.60
2023-02-22T06:57:50.924Z,1005.58
2023-02-22T06:58:50.919Z,1005.66
2023-02-22T06:59:50.942Z,1005.62
2023-02-22T07:00:50.923Z,1005.64
2023-02-22T07:01:50.898Z,1005.66
2023-02-22T07:02:50.888Z,1005.64
2023-02-22T07:03:50.897Z,1005.68
2023-02-22T07:04:50.870Z,1005.68
2023-02-22T07:05:50.861Z,1005.66
2023-02-22T07:06:50.862Z,1005.69
2023-02-22T07:07:50.848Z,1005.68
2023-02-22T07:08:50.827Z,1005.64
2023-02-22T07:09:50.817Z,1005.71
2023-02-22T07:10:50.819Z,1005.70
2023-02-22T07:11:50.806Z,1005.68
2023-02-22T07:12:50.794Z,1005.72
2023-02-22T07:13:50.791Z,1005.74
2023-02-22T07:14:50.791Z,1005.73
2023-02-22T07:15:50.769Z,1005.72
2023-02-22T07:16:50.773Z,1005.76
2023-02-22T07:17:50.760Z,1005.64
2023-02-22T07:18:50.740Z,1005.67
2023-02-22T07:19:50.733Z,1005.70
2023-02-22T07:20:50.723Z,1005.66
2023-02-22T07:21:50.719Z,1005.70
2023-02-22T07:22:50.742Z,1005.68
2023-02-22T07:23:50.716Z,1005.69
2023-02-22T07:24:50.689Z,1005.68
2023-02-22T07:25:50.693Z,1005.68
2023-02-22T07:26:50.677Z,1005.67
2023-02-22T07:27:50.670Z,1005.67
2023-02-22T07:28:50.670Z,1005.67
2023-02-22T07:29:50.664Z,1005.67
2023-02-22T07:30:50.645Z,1005.66
2023-02-22T07:31:50.679Z,1005.66
2023-02-22T07:32:50.702Z,1005.68
2023-02-22T07:33:50.609Z,1005.68
2023-02-22T07:34:50.606Z,1005.64
2023-02-22T07:35:50.597Z,1005.64
2023-02-22T07:36:50.585Z,1005.65
2023-02-22T07:37:50.583Z,1005.68
2023-02-22T07:38:50.564Z,1005.62
2023-02-22T07:39:50.571Z,1005.63
2023-02-22T07:40:50.567Z,1005.69
2023-02-22T07:41:50.549Z,1005.66
2023-02-22T07:42:50.536Z,1005.69
2023-02-22T07:43:50.518Z,1005.72
2023-02-22T07:44:50.516Z,1005.73
2023-02-22T07:45:50.529Z,1005.70
2023-02-22T07:46:50.526Z,1005.72
2023-02-22T07:47:50.485Z,1005.72
2023-02-22T07:48:50.478Z,1005.71
2023-02-22T07:49:50.469Z,1005.63
2023-02-22T07:50:50.465Z,1005.64
2023-02-22T07:51:50.465Z,1005.65
2023-02-22T07:52:50.444Z,1005.62
2023-02-22T07:53:50.436Z,1005.61
2023-02-22T07:54:50.414Z,1005.60
2023-02-22T07:55:50.421Z,1005.63
2023-02-22T07:56:50.406Z,1005.62
2023-02-22T07:57:50.433Z,1005.60
2023-02-22T07:58:50.406Z,1005.62
2023-02-22T07:59:50.385Z,1005.66
2023-02-22T08:00:50.381Z,1005.63
2023-02-22T08:01:50.374Z,1005.62
2023-02-22T08:02:50.377Z,1005.66
2023-02-22T08:03:50.364Z,1005.61
2023-02-22T08:04:50.340Z,1005.63
2023-02-22T08:05:50.360Z,1005.59
2023-02-22T08:06:50.324Z,1005.61
2023-02-22T08:07:50.313Z,1005.62
2023-02-22T08:08:50.293Z,1005.61
2023-02-22T08:09:50.286Z,1005.59
2023-02-22T08:10:50.285Z,1005.58
2023-02-22T08:11:50.272Z,1005.52
2023-02-22T08:12:50.261Z,1005.50
2023-02-22T08:13:50.270Z,1005.50
2023-02-22T08:14:50.236Z,1005.50
2023-02-22T08:15:50.247Z,1005.46
2023-02-22T08:16:50.258Z,1005.52
2023-02-22T08:17:50.225Z,1005.51
2023-02-22T08:18:50.212Z,1005.48
2023-02-22T08:19:50.201Z,1005.44
2023-02-22T08:20:50.192Z,1005.42
2023-02-22T08:21:50.186Z,1005.42
2023-02-22T08:22:50.174Z,1005.40
2023-02-22T08:23:50.172Z,1005.32
2023-02-22T08:24:50.160Z,1005.33
2023-02-22T08:25:50.163Z,1005.32
2023-02-22T08:26:50.142Z,1005.32
2023-02-22T08:27:50.135Z,1005.33
2023-02-22T08:28:50.118Z,1005.32
2023-02-22T08:29:50.111Z,1005.31
2023-02-22T08:30:50.121Z,1005.27
2023-02-22T08:31:50.262Z,1005.30
2023-02-22T08:32:50.168Z,1005.27
2023-02-22T08:33:50.091Z,1005.28
2023-02-22T08:34:50.068Z,1005.27
2023-02-22T08:35:50.071Z,1005.26
2023-02-22T08:36:50.049Z,1005.28
2023-02-22T08:37:50.046Z,1005.24
2023-02-22T08:38:50.034Z,1005.23
2023-02-22T08:39:50.024Z,1005.24
2023-02-22T08:40:50.050Z,1005.25
2023-02-22T08:41:50.009Z,1005.23
2023-02-22T08:42:50.001Z,1005.26
2023-02-22T08:43:49.985Z,1005.25
2023-02-22T08:44:50.011Z,1005.27
2023-02-22T08:45:50.038Z,1005.27
2023-02-22T08:46:49.962Z,1005.26
2023-02-22T08:47:49.959Z,1005.25
2023-02-22T08:48:49.937Z,1005.28
2023-02-22T08:49:49.938Z,1005.26
2023-02-22T08:50:49.940Z,1005.24
2023-02-22T08:51:49.922Z,1005.19
2023-02-22T08:52:49.909Z,1005.20
2023-02-22T08:53:49.909Z,1005.21
2023-02-22T08:54:49.890Z,1005.15
2023-02-22T08:55:49.927Z,1005.18
2023-02-22T08:56:49.879Z,1005.20
2023-02-22T08:57:49.877Z,1005.16
2023-02-22T08:58:49.867Z,1005.13
2023-02-22T08:59:49.858Z,1005.16
2023-02-22T09:00:49.843Z,1005.16
2023-02-22T09:01:49.883Z,1005.15
2023-02-22T09:02:49.827Z,1005.16
2023-02-22T09:03:49.887Z,1005.14
2023-02-22T09:04:49.820Z,1005.14
2023-02-22T09:05:49.822Z,1005.16
2023-02-22T09:06:49.801Z,1005.18
2023-02-22T09:07:49.832Z,1005.17
2023-02-22T09:08:49.783Z,1005.21
2023-02-22T09:09:49.766Z,1005.19
2023-02-22T09:10:49.761Z,1005.17
2023-02-22T09:11:52.671Z,1005.16
2023-02-22T09:12:49.750Z,1005.12
2023-02-22T09:13:49.749Z,1005.09
2023-02-22T09:14:49.737Z,1005.10
2023-02-22T09:15:49.726Z,1005.09
2023-02-22T09:16:49.750Z,1005.09
2023-02-22T09:17:49.707Z,1005.11
2023-02-22T09:18:49.709Z,1005.11
2023-02-22T09:19:49.691Z,1005.11
2023-02-22T09:20:49.693Z,1005.06
2023-02-22T09:21:49.684Z,1005.05
2023-02-22T09:22:49.675Z,1005.04
2023-02-22T09:23:49.660Z,1005.05
2023-02-22T09:24:49.658Z,1005.02
2023-02-22T09:25:49.650Z,1004.98
2023-02-22T09:26:49.643Z,1005.03
2023-02-22T09:27:49.645Z,1005.01
2023-02-22T09:28:49.624Z,1005.06
2023-02-22T09:29:49.625Z,1005.01
2023-02-22T09:30:49.678Z,1004.99
2023-02-22T09:31:49.676Z,1004.97
2023-02-22T09:32:49.818Z,1005.01
2023-02-22T09:33:49.599Z,1004.99
2023-02-22T09:34:49.599Z,1004.98
2023-02-22T09:35:49.577Z,1004.91
2023-02-22T09:36:49.582Z,1004.96
2023-02-22T09:37:49.571Z,1004.95
2023-02-22T09:38:49.557Z,1004.97
2023-02-22T09:39:49.631Z,1004.93
2023-02-22T09:40:49.552Z,1004.90
2023-02-22T09:41:49.555Z,1004.91
2023-02-22T09:42:49.534Z,1004.90
2023-02-22T09:43:49.559Z,1004.87
2023-02-22T09:44:49.536Z,1004.85
2023-02-22T09:45:49.568Z,1004.87
2023-02-22T09:46:49.504Z,1004.86
2023-02-22T09:47:49.534Z,1004.83
2023-02-22T09:48:49.488Z,1004.79
2023-02-22T09:49:49.504Z,1004.84
2023-02-22T09:50:49.484Z,1004.83
2023-02-22T09:51:49.538Z,1004.80
2023-02-22T09:52:49.470Z,1004.83
2023-02-22T09:53:49.458Z,1004.84
2023-02-22T09:54:49.453Z,1004.81
2023-02-22T09:55:49.444Z,1004.84
2023-02-22T09:56:49.439Z,1004.85
2023-02-22T09:57:49.438Z,1004.82
2023-02-22T09:58:49.445Z,1004.83
2023-02-22T09:59:49.420Z,1004.86
2023-02-22T10:00:49.410Z,1004.88
2023-02-22T10:01:49.406Z,1004.86
2023-02-22T10:02:49.403Z,1004.85
2023-02-22T10:03:49.471Z,1004.86
2023-02-22T10:04:49.380Z,1004.84
2023-02-22T10:05:49.410Z,1004.83
2023-02-22T10:06:49.377Z,1004.87
2023-02-22T10:07:49.382Z,1004.86
2023-02-22T10:08:49.365Z,1004.87
2023-02-22T10:09:49.357Z,1004.88
2023-02-22T10:10:49.370Z,1004.92
2023-02-22T10:11:49.353Z,1004.92
2023-02-22T10:12:49.369Z,1004.95
2023-02-22T10:13:49.326Z,1004.93
2023-02-22T10:14:49.345Z,1004.97
2023-02-22T10:15:49.322Z,1004.97
2023-02-22T10:16:49.442Z,1005.01
2023-02-22T10:17:49.308Z,1004.97
2023-02-22T10:18:49.322Z,1005.04
2023-02-22T10:19:49.305Z,1005.09
2023-02-22T10:20:49.310Z,1005.06
2023-02-22T10:21:49.317Z,1005.03
2023-02-22T10:22:49.298Z,1005.01
2023-02-22T10:23:49.310Z,1005.00
2023-02-22T10:24:49.282Z,1005.00
2023-02-22T10:25:49.288Z,1004.98
2023-02-22T10:26:49.270Z,1005.01
2023-02-22T10:27:49.279Z,1005.01
2023-02-22T10:28:49.263Z,1004.96
2023-02-22T10:29:49.262Z,1004.95
2023-02-22T10:30:49.330Z,1004.95
2023-02-22T10:31:49.349Z,1004.94
2023-02-22T10:32:49.248Z,1004.95
2023-02-22T10:33:49.246Z,1004.94
2023-02-22T10:34:49.251Z,1004.95
2023-02-22T10:35:49.233Z,1004.93
2023-02-22T10:36:49.238Z,1004.92
2023-02-22T10:37:49.415Z,1004.87
2023-02-22T10:38:49.238Z,1004.85
2023-02-22T10:39:49.260Z,1004.85
2023-02-22T10:40:49.230Z,1004.83
2023-02-22T10:41:49.211Z,1004.82
2023-02-22T10:42:49.224Z,1004.83
2023-02-22T10:43:49.207Z,1004.79
2023-02-22T10:44:49.211Z,1004.84
2023-02-22T10:45:49.226Z,1004.82
2023-02-22T10:46:49.198Z,1004.84
2023-02-22T10:47:49.188Z,1004.84
2023-02-22T10:48:49.218Z,1004.78
2023-02-22T10:49:49.191Z,1004.82
2023-02-22T10:50:49.198Z,1004.85
2023-02-22T10:51:49.173Z,1004.80
2023-02-22T10:52:49.171Z,1004.80
2023-02-22T10:53:49.158Z,1004.80
2023-02-22T10:54:49.171Z,1004.84
2023-02-22T10:55:49.177Z,1004.81
2023-02-22T10:56:49.155Z,1004.79
2023-02-22T10:57:49.154Z,1004.77
2023-02-22T10:58:49.155Z,1004.74
2023-02-22T10:59:49.152Z,1004.80
2023-02-22T11:00:49.140Z,1004.76
2023-02-22T11:01:49.183Z,1004.75
2023-02-22T11:02:49.126Z,1004.77
2023-02-22T11:03:49.124Z,1004.71
2023-02-22T11:04:49.140Z,1004.69
2023-02-22T11:05:49.121Z,1004.67
2023-02-22T11:06:49.130Z,1004.65
2023-02-22T11:07:49.120Z,1004.63
2023-02-22T11:08:49.107Z,1004.61
2023-02-22T11:09:49.117Z,1004.61
2023-02-22T11:10:49.105Z,1004.60
2023-02-22T11:11:49.095Z,1004.53
2023-02-22T11:12:49.111Z,1004.55
2023-02-22T11:13:49.109Z,1004.56
2023-02-22T11:14:49.084Z,1004.55
2023-02-22T11:15:49.078Z,1004.56
2023-02-22T11:16:49.087Z,1004.54
2023-02-22T11:17:49.065Z,1004.54
2023-02-22T11:18:49.064Z,1004.53
2023-02-22T11:19:49.077Z,1004.52
2023-02-22T11:20:49.058Z,1004.47
2023-02-22T11:21:49.042Z,1004.51
2023-02-22T11:22:49.048Z,1004.48
2023-02-22T11:23:49.047Z,1004.51
2023-02-22T11:24:49.556Z,1004.48
2023-02-22T11:25:49.038Z,1004.46
2023-02-22T11:26:49.141Z,1004.45
2023-02-22T11:27:49.058Z,1004.43
2023-02-22T11:28:49.067Z,1004.46
2023-02-22T11:29:49.016Z,1004.42
2023-02-22T11:30:49.110Z,1004.39
2023-02-22T11:31:49.141Z,1004.40
2023-02-22T11:32:49.029Z,1004.39
2023-02-22T11:33:49.002Z,1004.38
2023-02-22T11:34:50.827Z,1004.38
2023-02-22T11:35:48.998Z,1004.36
2023-02-22T11:36:48.995Z,1004.29
2023-02-22T11:37:49.001Z,1004.31
2023-02-22T11:38:49.004Z,1004.35
2023-02-22T11:39:48.985Z,1004.37
2023-02-22T11:40:48.988Z,1004.30
2023-02-22T11:41:48.998Z,1004.27
2023-02-22T11:42:48.981Z,1004.25
2023-02-22T11:43:48.988Z,1004.25
2023-02-22T11:44:48.973Z,1004.22
2023-02-22T11:45:57.832Z,1004.23
2023-02-22T11:46:49.015Z,1004.19
2023-02-22T11:47:48.970Z,1004.18
2023-02-22T11:48:48.969Z,1004.18
2023-02-22T11:49:48.944Z,1004.16
2023-02-22T11:50:48.948Z,1004.16
2023-02-22T11:51:48.962Z,1004.14
2023-02-22T11:52:48.943Z,1004.14
2023-02-22T11:53:48.939Z,1004.16
2023-02-22T11:54:48.959Z,1004.10
2023-02-22T11:55:48.925Z,1004.09
2023-02-22T11:56:48.983Z,1004.10
2023-02-22T11:57:49.030Z,1004.09
2023-02-22T11:58:48.912Z,1004.06
2023-02-22T11:59:48.927Z,1004.09
2023-02-22T12:00:48.918Z,1004.11
2023-02-22T12:01:48.903Z,1004.07
2023-02-22T12:02:57.007Z,1004.07
2023-02-22T12:03:49.076Z,1004.05
2023-02-22T12:04:48.968Z,1004.04
2023-02-22T12:05:48.889Z,1004.02